Time;durP1;ratioP1;P1;durP2;ratioP2;P2;SDS_P1;SDS_P2;PMS_P1;PMS_P2;Temp;Humidity;BMP_temperature;BMP_pressure;BME280_temperature;BME280_humidity;BME280_pressure;Samples;Min_cycle;Max_cycle;Signal;HPM_P1;HPM_P2
2022/11/24 00:01:57;;;;;;;196.20;42.40;;;3.90;99.90;;;;;;5048809;28;20193;-78
2022/11/24 00:04:24;;;;;;;220.83;42.87;;;4.00;99.90;;;;;;5049187;28;20338;-78
2022/11/24 00:06:53;;;;;;;225.60;43.97;;;4.00;99.90;;;;;;5050268;28;20240;-80
2022/11/24 00:09:20;;;;;;;229.73;43.57;;;3.90;99.90;;;;;;5050118;28;20196;-78
2022/11/24 00:11:47;;;;;;;233.67;43.57;;;4.00;99.90;;;;;;5050125;28;20200;-78
2022/11/24 00:14:14;;;;;;;185.83;43.43;;;3.90;99.90;;;;;;5050178;28;20188;-78
2022/11/24 00:16:42;;;;;;;231.93;44.93;;;4.00;99.90;;;;;;5049580;28;20642;-80
2022/11/24 00:19:10;;;;;;;253.90;46.07;;;4.00;99.90;;;;;;5050167;28;20686;-81
2022/11/24 00:21:38;;;;;;;206.80;44.57;;;4.00;99.90;;;;;;5049650;28;20612;-81
2022/11/24 00:24:05;;;;;;;215.27;44.17;;;4.00;99.90;;;;;;5050100;28;20268;-81
2022/11/24 00:26:36;;;;;;;191.57;43.97;;;4.00;99.90;;;;;;5049746;28;20229;-78
2022/11/24 00:29:05;;;;;;;234.83;44.23;;;4.00;99.90;;;;;;5049896;28;20242;-80
2022/11/24 00:31:34;;;;;;;200.17;43.83;;;4.10;99.90;;;;;;5049966;28;20200;-78
2022/11/24 00:34:04;;;;;;;208.73;43.80;;;4.00;99.90;;;;;;5048276;28;20196;-79
2022/11/24 00:36:34;;;;;;;285.67;46.93;;;4.00;99.90;;;;;;5049913;28;20249;-78
2022/11/24 00:39:03;;;;;;;304.80;48.97;;;4.10;99.90;;;;;;5049870;28;20271;-77
2022/11/24 00:41:31;;;;;;;273.83;49.00;;;4.10;99.90;;;;;;5049758;28;20192;-78
2022/11/24 00:43:59;;;;;;;269.10;46.47;;;4.10;99.90;;;;;;5035540;28;20216;-78
2022/11/24 00:46:27;;;;;;;255.80;46.40;;;4.20;99.90;;;;;;5049333;28;20192;-77
2022/11/24 00:48:54;;;;;;;297.27;48.10;;;4.20;99.90;;;;;;5049454;28;20591;-81
2022/11/24 00:51:25;;;;;;;187.33;42.07;;;4.20;99.90;;;;;;5048511;28;20647;-78
2022/11/24 00:53:53;;;;;;;296.50;46.47;;;4.20;1.00;;;;;;5049287;28;20224;-77
2022/11/24 00:56:20;;;;;;;246.17;45.97;;;4.20;1.00;;;;;;5049250;28;20662;-77
2022/11/24 00:58:47;;;;;;;224.93;44.77;;;4.20;1.00;;;;;;5049329;28;20686;-77
2022/11/24 01:01:16;;;;;;;246.23;46.23;;;4.20;1.00;;;;;;5049235;28;20264;-78
2022/11/24 01:03:43;;;;;;;261.67;46.13;;;4.10;1.00;;;;;;5048980;28;20192;-78
2022/11/24 01:06:12;;;;;;;214.10;45.00;;;4.10;1.00;;;;;;5049016;28;20205;-77
2022/11/24 01:08:41;;;;;;;149.90;40.47;;;4.10;1.00;;;;;;5049086;28;20200;-79
2022/11/24 01:11:11;;;;;;;202.37;42.97;;;4.10;1.00;;;;;;5049189;28;20209;-78
2022/11/24 01:13:38;;;;;;;253.17;46.67;;;4.00;10.60;;;;;;5049333;28;20197;-78
2022/11/24 01:16:06;;;;;;;179.13;41.60;;;4.00;6.50;;;;;;5049140;28;20203;-78
2022/11/24 01:18:33;;;;;;;216.20;44.90;;;4.10;6.30;;;;;;5049013;28;20217;-77
2022/11/24 01:21:04;;;;;;;218.17;46.07;;;4.10;36.70;;;;;;5041122;28;20196;-78
2022/11/24 01:23:33;;;;;;;203.80;43.67;;;4.10;98.90;;;;;;5049117;28;20563;-78
2022/11/24 01:26:05;;;;;;;170.17;41.23;;;4.10;96.20;;;;;;5048794;28;20239;-79
2022/11/24 01:28:32;;;;;;;176.47;42.53;;;4.10;1.00;;;;;;5049269;28;20238;-79
2022/11/24 01:30:59;;;;;;;165.53;42.03;;;4.10;1.00;;;;;;5049081;28;20533;-78
2022/11/24 01:33:26;;;;;;;157.20;41.90;;;4.10;1.00;;;;;;5048566;28;20192;-79
2022/11/24 01:35:54;;;;;;;160.73;42.20;;;4.20;66.70;;;;;;5049072;28;20203;-78
2022/11/24 01:38:21;;;;;;;164.93;42.70;;;4.20;21.30;;;;;;5048559;28;20292;-77
2022/11/24 01:40:49;;;;;;;147.00;41.10;;;4.20;1.00;;;;;;5048723;28;20614;-77
2022/11/24 01:43:19;;;;;;;160.20;43.27;;;4.20;1.00;;;;;;5048650;28;20589;-79
2022/11/24 01:45:47;;;;;;;166.90;42.63;;;4.20;1.00;;;;;;5052165;28;20638;-81
2022/11/24 01:48:20;;;;;;;157.27;40.93;;;4.20;1.00;;;;;;5052460;28;20205;-81
2022/11/24 01:50:54;;;;;;;164.53;42.47;;;4.20;1.00;;;;;;5052048;28;20646;-78
2022/11/24 01:53:22;;;;;;;163.40;41.67;;;4.20;1.00;;;;;;5052100;28;20600;-77
2022/11/24 01:55:50;;;;;;;179.53;43.53;;;4.20;1.00;;;;;;5052190;28;20279;-78
2022/11/24 01:58:22;;;;;;;187.27;43.13;;;4.20;1.00;;;;;;5051777;28;20197;-77
2022/11/24 02:00:51;;;;;;;190.33;44.70;;;4.20;1.00;;;;;;5051871;28;20212;-77
2022/11/24 02:03:20;;;;;;;174.13;42.47;;;4.10;1.00;;;;;;5052081;28;20661;-78
2022/11/24 02:05:53;;;;;;;164.13;43.70;;;4.10;1.00;;;;;;5051928;28;20196;-77
2022/11/24 02:08:27;;;;;;;179.53;44.67;;;4.10;1.00;;;;;;5051894;28;20200;-77
2022/11/24 02:10:55;;;;;;;174.10;44.00;;;4.00;1.00;;;;;;5051838;28;20203;-76
2022/11/24 02:13:24;;;;;;;174.57;43.80;;;4.00;88.10;;;;;;5051761;28;20245;-78
2022/11/24 02:15:53;;;;;;;164.17;44.10;;;4.00;99.90;;;;;;5051647;28;20210;-77
2022/11/24 02:18:20;;;;;;;142.37;42.13;;;4.00;99.90;;;;;;5051616;28;20280;-80
2022/11/24 02:20:47;;;;;;;155.50;42.57;;;4.00;99.90;;;;;;5051609;28;20708;-78
2022/11/24 02:23:23;;;;;;;143.53;42.90;;;4.00;99.90;;;;;;5051658;28;20253;-77
2022/11/24 02:26:01;;;;;;;156.50;42.43;;;4.00;99.90;;;;;;5051434;28;20236;-77
2022/11/24 02:28:31;;;;;;;145.93;41.50;;;4.10;99.90;;;;;;5051597;28;20204;-78
2022/11/24 02:30:59;;;;;;;143.87;41.30;;;4.10;99.90;;;;;;5051987;28;20209;-77
2022/11/24 02:33:27;;;;;;;157.83;41.83;;;4.10;99.90;;;;;;5043693;28;20196;-79
2022/11/24 02:35:54;;;;;;;138.00;40.27;;;4.10;99.90;;;;;;5051802;28;20273;-79
2022/11/24 02:38:29;;;;;;;148.40;42.23;;;4.10;99.90;;;;;;5051554;28;20197;-77
2022/11/24 02:40:57;;;;;;;135.20;41.37;;;4.10;41.20;;;;;;5051590;28;20208;-80
2022/11/24 02:43:25;;;;;;;131.60;41.13;;;4.10;1.00;;;;;;5051525;28;20194;-77
2022/11/24 02:45:53;;;;;;;132.43;41.47;;;4.00;1.00;;;;;;5051604;28;20195;-80
2022/11/24 02:48:20;;;;;;;139.77;41.13;;;4.00;5.00;;;;;;5051109;28;20204;-80
2022/11/24 02:50:47;;;;;;;139.90;42.13;;;4.00;99.90;;;;;;5050903;28;20189;-80
2022/11/24 02:53:14;;;;;;;134.43;41.73;;;4.00;99.90;;;;;;5051351;28;20200;-78
2022/11/24 02:55:41;;;;;;;149.73;42.43;;;4.00;99.90;;;;;;5050112;28;20202;-78
2022/11/24 02:58:08;;;;;;;142.43;41.17;;;4.00;99.90;;;;;;5050957;28;20200;-77
2022/11/24 03:00:36;;;;;;;130.40;42.17;;;4.00;99.90;;;;;;5051452;28;20213;-80
2022/11/24 03:03:04;;;;;;;148.63;40.67;;;4.00;99.90;;;;;;5051132;28;20193;-77
2022/11/24 03:05:31;;;;;;;142.37;42.83;;;4.00;99.90;;;;;;5051273;28;20200;-80
2022/11/24 03:07:58;;;;;;;142.57;42.33;;;4.10;99.90;;;;;;5050651;28;20646;-77
2022/11/24 03:10:25;;;;;;;131.77;41.63;;;4.10;99.90;;;;;;5051237;28;20192;-79
2022/11/24 03:12:52;;;;;;;144.73;42.43;;;4.10;99.90;;;;;;5050979;28;20616;-78
2022/11/24 03:15:19;;;;;;;131.33;41.83;;;4.10;40.90;;;;;;5049093;28;20197;-80
2022/11/24 03:17:46;;;;;;;137.20;42.00;;;4.10;41.40;;;;;;5050639;28;20196;-76
2022/11/24 03:20:15;;;;;;;131.43;40.07;;;4.00;53.00;;;;;;5050732;28;20208;-78
2022/11/24 03:22:42;;;;;;;138.30;42.30;;;4.10;99.90;;;;;;5050761;28;20246;-80
2022/11/24 03:25:10;;;;;;;120.30;40.20;;;4.10;99.90;;;;;;5050631;28;20624;-80
2022/11/24 03:27:37;;;;;;;140.23;41.17;;;4.10;99.90;;;;;;5050624;28;20204;-77
2022/11/24 03:30:05;;;;;;;138.80;39.73;;;4.20;99.90;;;;;;5051102;28;20197;-80
2022/11/24 03:32:32;;;;;;;137.37;41.80;;;4.20;1.00;;;;;;5051068;28;20201;-78
2022/11/24 03:34:59;;;;;;;150.77;43.40;;;4.20;1.00;;;;;;5050680;28;20193;-78
2022/11/24 03:37:28;;;;;;;151.43;43.70;;;4.20;1.00;;;;;;5050824;28;20559;-78
2022/11/24 03:39:55;;;;;;;148.20;40.40;;;4.20;1.00;;;;;;5050039;28;20217;-77
2022/11/24 03:42:22;;;;;;;148.80;42.50;;;4.20;1.00;;;;;;5037533;28;20196;-77
2022/11/24 03:44:49;;;;;;;136.43;43.20;;;4.20;1.00;;;;;;5050422;28;20197;-78
2022/11/24 03:47:16;;;;;;;143.60;41.97;;;4.20;1.00;;;;;;5050624;28;20271;-76
2022/11/24 03:49:43;;;;;;;136.53;42.63;;;4.20;1.00;;;;;;5050511;28;20197;-78
2022/11/24 03:52:10;;;;;;;131.03;41.67;;;4.20;1.00;;;;;;5050357;28;20192;-77
2022/11/24 03:54:38;;;;;;;130.97;41.33;;;4.10;1.00;;;;;;5050366;28;20226;-78
2022/11/24 03:57:05;;;;;;;127.83;40.20;;;4.10;1.00;;;;;;5050430;28;20669;-81
2022/11/24 03:59:32;;;;;;;131.63;40.13;;;4.10;1.00;;;;;;5050165;28;20254;-77
2022/11/24 04:01:59;;;;;;;129.70;39.90;;;4.10;1.00;;;;;;5050256;28;20201;-78
2022/11/24 04:04:26;;;;;;;121.90;42.33;;;4.10;1.00;;;;;;5036470;28;20197;-79
2022/11/24 04:06:54;;;;;;;126.50;40.00;;;4.10;1.00;;;;;;5049627;28;20250;-80
2022/11/24 04:09:21;;;;;;;139.27;41.60;;;4.10;1.00;;;;;;5050325;28;20273;-77
2022/11/24 04:14:33;;;;;;;121.17;40.13;;;4.10;1.00;;;;;;5049924;28;20200;-79
2022/11/24 04:17:00;;;;;;;134.43;41.20;;;4.10;1.00;;;;;;5049826;28;20205;-78
2022/11/24 04:19:27;;;;;;;131.07;40.87;;;4.10;1.00;;;;;;5049485;28;20269;-78
2022/11/24 04:21:54;;;;;;;118.73;40.43;;;4.00;1.00;;;;;;5050061;28;20193;-81
2022/11/24 04:24:21;;;;;;;120.37;39.20;;;4.00;1.00;;;;;;5049573;28;20215;-79
2022/11/24 04:26:49;;;;;;;136.07;40.53;;;4.00;1.00;;;;;;5049508;28;20244;-77
2022/11/24 04:29:16;;;;;;;120.17;40.03;;;4.00;1.00;;;;;;5048968;28;20197;-78
2022/11/24 04:31:43;;;;;;;132.97;39.87;;;4.00;1.00;;;;;;5049921;28;20592;-77
2022/11/24 04:34:11;;;;;;;130.03;40.37;;;4.00;1.00;;;;;;5048756;28;20253;-80
2022/11/24 04:36:39;;;;;;;122.97;40.67;;;4.00;1.00;;;;;;5049088;28;20193;-78
2022/11/24 04:39:07;;;;;;;136.00;40.97;;;4.00;1.00;;;;;;5049733;28;20597;-77
2022/11/24 04:41:34;;;;;;;115.37;39.00;;;4.00;1.00;;;;;;5049410;28;20220;-78
2022/11/24 04:44:02;;;;;;;123.53;40.30;;;3.90;1.00;;;;;;5049941;28;20197;-80
2022/11/24 04:46:29;;;;;;;128.87;40.30;;;4.00;1.00;;;;;;5049275;28;20647;-80
2022/11/24 04:48:56;;;;;;;127.40;39.73;;;4.00;1.00;;;;;;5049892;28;20257;-79
2022/11/24 04:51:23;;;;;;;132.07;41.17;;;4.00;1.00;;;;;;5049869;28;20249;-77
2022/11/24 04:53:50;;;;;;;133.77;40.73;;;4.00;1.00;;;;;;5049554;28;20703;-79
2022/11/24 04:56:18;;;;;;;130.37;40.73;;;4.00;1.00;;;;;;5049553;28;20196;-79
2022/11/24 04:58:48;;;;;;;141.80;41.33;;;3.90;1.00;;;;;;5049309;28;20197;-78
2022/11/24 05:01:16;;;;;;;146.17;42.10;;;3.90;1.00;;;;;;5049110;28;20236;-78
2022/11/24 05:03:43;;;;;;;144.87;42.00;;;3.90;1.00;;;;;;5049014;28;20196;-77
2022/11/24 05:06:10;;;;;;;129.17;41.33;;;4.00;1.00;;;;;;5049592;28;20204;-77
2022/11/24 05:08:37;;;;;;;121.60;39.70;;;3.90;1.00;;;;;;5049057;28;20197;-78
2022/11/24 05:11:05;;;;;;;135.00;42.10;;;3.90;1.00;;;;;;5049631;28;20196;-78
2022/11/24 05:13:33;;;;;;;139.33;40.87;;;3.90;1.00;;;;;;5049327;28;20200;-78
2022/11/24 05:16:00;;;;;;;128.43;39.63;;;3.80;1.00;;;;;;5049453;28;20201;-80
2022/11/24 05:18:28;;;;;;;146.87;40.77;;;3.80;1.00;;;;;;5048391;28;20250;-78
2022/11/24 05:20:55;;;;;;;130.07;41.70;;;3.80;1.00;;;;;;5048666;28;21102;-77
2022/11/24 05:23:23;;;;;;;131.70;40.17;;;3.80;1.00;;;;;;5048746;28;20220;-78
2022/11/24 05:25:50;;;;;;;143.63;42.10;;;3.80;1.00;;;;;;5048735;28;20224;-78
2022/11/24 05:28:17;;;;;;;148.47;42.13;;;3.80;1.00;;;;;;5048961;28;20196;-79
2022/11/24 05:30:45;;;;;;;163.67;42.83;;;3.80;90.20;;;;;;5049182;28;20205;-77
2022/11/24 05:33:15;;;;;;;151.40;43.27;;;3.80;98.20;;;;;;5048971;28;20192;-77
2022/11/24 05:35:44;;;;;;;144.63;42.20;;;3.80;41.50;;;;;;5049094;28;20196;-79
2022/11/24 05:38:11;;;;;;;145.67;42.37;;;3.80;1.00;;;;;;5048628;28;20211;-77
2022/11/24 05:40:39;;;;;;;146.10;42.60;;;3.80;65.10;;;;;;5048949;28;20265;-77
2022/11/24 05:43:09;;;;;;;157.60;42.23;;;3.80;99.90;;;;;;5049053;28;20253;-77
2022/11/24 05:45:37;;;;;;;129.83;40.60;;;3.80;85.80;;;;;;5049051;28;20569;-78
2022/11/24 05:48:06;;;;;;;157.60;43.20;;;3.90;1.00;;;;;;5048820;28;20197;-79
2022/11/24 05:50:33;;;;;;;176.93;43.30;;;3.90;1.00;;;;;;5049072;28;20196;-79
2022/11/24 05:53:04;;;;;;;181.43;46.13;;;4.00;1.00;;;;;;5048939;28;20201;-78
2022/11/24 05:55:32;;;;;;;154.23;42.60;;;4.00;1.00;;;;;;5053192;28;20175;-81
2022/11/24 05:58:03;;;;;;;141.63;42.23;;;4.00;1.00;;;;;;5073647;28;20200;-80
2022/11/24 06:00:31;;;;;;;160.50;43.93;;;4.00;1.00;;;;;;5055687;28;20212;-77
2022/11/24 06:02:58;;;;;;;172.17;44.87;;;4.00;1.00;;;;;;5048377;28;20557;-79
2022/11/24 06:05:25;;;;;;;153.73;43.67;;;4.00;1.00;;;;;;5048655;28;20204;-77
2022/11/24 06:07:52;;;;;;;172.73;44.63;;;4.00;1.00;;;;;;5048117;28;20189;-79
2022/11/24 06:10:22;;;;;;;162.47;46.30;;;4.00;1.00;;;;;;5039604;28;20200;-78
2022/11/24 06:12:49;;;;;;;139.50;42.80;;;3.90;1.00;;;;;;5047517;28;20189;-78
2022/11/24 06:15:17;;;;;;;181.27;43.93;;;3.90;1.00;;;;;;5048026;28;20530;-77
2022/11/24 06:17:44;;;;;;;158.83;48.57;;;3.90;1.00;;;;;;5047795;28;20235;-79
2022/11/24 06:20:11;;;;;;;143.70;45.17;;;3.90;1.00;;;;;;5048057;28;20266;-78
2022/11/24 06:22:38;;;;;;;189.53;45.77;;;3.90;1.00;;;;;;5047394;28;20197;-77
2022/11/24 06:25:06;;;;;;;176.70;44.27;;;3.90;1.00;;;;;;5048264;28;20229;-76
2022/11/24 06:27:34;;;;;;;164.03;44.33;;;3.90;1.00;;;;;;5048520;28;20193;-77
2022/11/24 06:30:02;;;;;;;141.30;42.43;;;3.90;1.00;;;;;;5048740;28;20209;-77
2022/11/24 06:32:29;;;;;;;152.07;42.03;;;3.90;1.00;;;;;;5051322;28;20203;-78
2022/11/24 06:34:56;;;;;;;148.03;42.47;;;3.90;1.00;;;;;;5051529;28;20241;-78
2022/11/24 06:37:23;;;;;;;140.67;41.70;;;3.90;1.00;;;;;;5051224;28;20253;-76
2022/11/24 06:39:50;;;;;;;146.67;43.67;;;3.80;1.00;;;;;;5051007;28;20200;-77
2022/11/24 06:42:18;;;;;;;149.43;42.23;;;3.80;1.00;;;;;;5051540;28;20561;-78
2022/11/24 06:44:47;;;;;;;155.70;42.30;;;3.80;1.00;;;;;;5051420;28;20604;-77
2022/11/24 06:47:14;;;;;;;128.63;39.50;;;3.80;1.00;;;;;;5051400;28;20552;-79
2022/11/24 06:49:41;;;;;;;154.90;42.23;;;3.80;1.00;;;;;;5051180;28;20201;-76
2022/11/24 06:52:08;;;;;;;142.37;42.03;;;3.80;1.00;;;;;;5051200;28;20553;-77
2022/11/24 06:54:35;;;;;;;153.43;44.30;;;3.80;1.00;;;;;;5051281;28;20192;-78
2022/11/24 06:57:02;;;;;;;132.93;42.17;;;3.80;1.00;;;;;;5051180;28;20204;-76
2022/11/24 06:59:29;;;;;;;146.20;42.83;;;3.80;1.00;;;;;;5051384;28;20200;-78
2022/11/24 07:01:57;;;;;;;156.10;43.80;;;3.80;1.00;;;;;;5050783;28;20220;-78
2022/11/24 07:04:25;;;;;;;135.63;42.60;;;3.70;1.00;;;;;;5051107;28;20598;-77
2022/11/24 07:06:52;;;;;;;140.93;44.07;;;3.70;1.00;;;;;;5051150;28;20201;-78
2022/11/24 07:09:19;;;;;;;143.83;41.13;;;3.70;1.00;;;;;;5050733;28;20200;-77
2022/11/24 07:11:46;;;;;;;154.07;43.63;;;3.60;1.00;;;;;;5051048;28;20200;-77
2022/11/24 07:14:13;;;;;;;145.23;44.70;;;3.70;1.00;;;;;;5051011;28;20201;-77
2022/11/24 07:16:40;;;;;;;180.07;44.87;;;3.70;1.00;;;;;;5054242;28;20196;-78
2022/11/24 07:19:10;;;;;;;168.40;45.13;;;3.70;1.00;;;;;;5050765;28;20231;-77
2022/11/24 07:21:37;;;;;;;154.13;45.27;;;3.70;1.00;;;;;;5051160;28;20212;-78
2022/11/24 07:24:04;;;;;;;147.60;44.67;;;3.70;1.00;;;;;;5051158;28;20192;-77
2022/11/24 07:26:35;;;;;;;146.77;45.53;;;3.80;36.40;;;;;;5056516;28;20224;-78
2022/11/24 07:29:03;;;;;;;153.40;45.50;;;3.90;1.00;;;;;;5057834;28;20553;-75
2022/11/24 07:31:31;;;;;;;165.37;46.80;;;3.90;1.00;;;;;;5061170;28;20265;-77
2022/11/24 07:33:58;;;;;;;151.57;46.53;;;4.00;1.00;;;;;;5057053;28;20658;-77
2022/11/24 07:36:26;;;;;;;183.77;46.60;;;4.00;1.00;;;;;;5054147;28;20204;-77
2022/11/24 07:38:53;;;;;;;174.10;45.93;;;4.00;1.00;;;;;;5050470;28;20196;-77
2022/11/24 07:41:21;;;;;;;164.73;46.67;;;4.10;1.00;;;;;;5053803;28;20551;-77
2022/11/24 07:43:49;;;;;;;174.90;46.50;;;4.10;1.00;;;;;;5050341;28;20204;-79
2022/11/24 07:46:18;;;;;;;156.03;45.00;;;4.10;1.00;;;;;;5052519;28;20189;-75
2022/11/24 07:48:45;;;;;;;162.23;45.43;;;4.10;1.00;;;;;;5050463;28;20242;-77
2022/11/24 07:51:12;;;;;;;173.63;46.40;;;4.10;1.00;;;;;;5049984;28;20205;-75
2022/11/24 07:53:41;;;;;;;158.30;46.03;;;4.10;1.00;;;;;;5050344;28;20276;-76
2022/11/24 07:56:09;;;;;;;163.63;46.43;;;4.10;1.00;;;;;;5051656;28;20197;-77
2022/11/24 07:58:37;;;;;;;171.50;47.03;;;4.10;1.00;;;;;;5051537;28;20234;-78
2022/11/24 08:01:12;;;;;;;167.27;47.30;;;4.10;1.00;;;;;;5050511;28;20264;-76
2022/11/24 08:03:40;;;;;;;155.80;45.00;;;4.10;1.00;;;;;;5036725;28;20192;-76
2022/11/24 08:06:07;;;;;;;188.90;52.47;;;4.20;1.00;;;;;;5050408;28;20597;-75
2022/11/24 08:08:34;;;;;;;182.57;50.23;;;4.30;1.00;;;;;;5050416;28;20225;-76
2022/11/24 08:11:07;;;;;;;174.03;50.43;;;4.40;1.00;;;;;;5050223;28;20192;-76
2022/11/24 08:13:34;;;;;;;180.07;53.93;;;4.40;1.00;;;;;;5050490;28;20197;-77
2022/11/24 08:16:05;;;;;;;178.70;56.47;;;4.50;1.00;;;;;;5049855;28;20861;-76
2022/11/24 08:18:32;;;;;;;170.53;57.53;;;4.50;1.00;;;;;;5050054;28;20193;-77
2022/11/24 08:20:59;;;;;;;151.50;50.53;;;4.60;99.90;;;;;;5049937;28;20213;-76
2022/11/24 08:23:27;;;;;;;163.10;54.47;;;4.60;99.90;;;;;;5049802;28;20244;-75
2022/11/24 08:25:55;;;;;;;154.27;51.30;;;4.60;99.90;;;;;;5049500;28;20224;-78
2022/11/24 08:28:24;;;;;;;162.90;48.13;;;4.60;99.90;;;;;;5035646;28;20597;-75
2022/11/24 08:30:51;;;;;;;169.90;49.53;;;4.60;99.90;;;;;;5049813;28;20194;-76
2022/11/24 08:33:18;;;;;;;159.07;49.27;;;4.60;99.90;;;;;;5049597;28;20192;-76
2022/11/24 08:35:45;;;;;;;161.20;52.33;;;4.70;99.90;;;;;;5049738;28;20197;-75
2022/11/24 08:38:12;;;;;;;153.80;44.60;;;4.70;99.90;;;;;;5049368;28;20224;-77
2022/11/24 08:40:39;;;;;;;199.43;47.83;;;4.70;99.90;;;;;;5049564;28;20200;-76
2022/11/24 08:43:06;;;;;;;166.07;50.50;;;4.70;99.90;;;;;;5049351;28;20193;-75
2022/11/24 08:45:35;;;;;;;221.40;74.37;;;4.60;99.90;;;;;;5049843;28;20188;-76
2022/11/24 08:48:02;;;;;;;223.77;73.43;;;4.60;99.90;;;;;;5049591;28;20197;-76
2022/11/24 08:50:29;;;;;;;185.53;55.27;;;4.60;99.90;;;;;;5049221;28;20245;-75
2022/11/24 08:52:55;;;;;;;240.77;59.70;;;4.60;99.90;;;;;;5049218;28;20197;-75
2022/11/24 08:55:22;;;;;;;227.47;54.47;;;4.60;99.90;;;;;;5048623;28;20200;-75
2022/11/24 08:57:49;;;;;;;207.30;59.03;;;4.60;99.90;;;;;;5049402;28;20192;-76
2022/11/24 09:00:22;;;;;;;188.13;62.87;;;4.50;99.90;;;;;;5049238;28;20193;-76
2022/11/24 09:02:58;;;;;;;223.57;68.33;;;4.50;99.90;;;;;;5048952;28;20196;-75
2022/11/24 09:05:25;;;;;;;222.90;60.23;;;4.50;99.90;;;;;;5052300;28;20231;-77
2022/11/24 09:07:52;;;;;;;196.50;50.93;;;4.50;99.90;;;;;;5049173;28;20658;-77
2022/11/24 09:10:19;;;;;;;198.00;60.20;;;4.50;1.00;;;;;;5049105;28;20194;-79
2022/11/24 09:12:47;;;;;;;187.80;53.80;;;4.50;99.90;;;;;;5049174;28;20192;-79
2022/11/24 09:15:15;;;;;;;164.87;51.80;;;4.50;99.90;;;;;;5051832;28;20194;-78
2022/11/24 09:17:43;;;;;;;160.40;48.53;;;4.50;99.90;;;;;;5048659;28;20196;-78
2022/11/24 09:20:12;;;;;;;164.00;49.80;;;4.50;99.90;;;;;;5058057;28;20220;-79
2022/11/24 09:22:40;;;;;;;167.40;50.07;;;4.50;99.90;;;;;;5051958;28;20221;-78
2022/11/24 09:25:07;;;;;;;160.70;50.20;;;4.50;99.90;;;;;;5049031;28;20224;-76
2022/11/24 09:27:35;;;;;;;169.07;49.50;;;4.50;99.90;;;;;;5049269;28;20204;-76
2022/11/24 09:30:02;;;;;;;188.57;54.47;;;4.50;1.00;;;;;;5048885;28;20533;-77
2022/11/24 09:32:30;;;;;;;188.37;55.70;;;4.60;1.00;;;;;;5048958;28;20194;-77
2022/11/24 09:34:58;;;;;;;187.57;52.80;;;4.60;99.90;;;;;;5048732;28;20193;-77
2022/11/24 09:37:27;;;;;;;171.93;53.30;;;4.60;99.90;;;;;;5048491;28;20245;-78
2022/11/24 09:39:54;;;;;;;169.03;49.77;;;4.60;99.90;;;;;;5048806;28;20557;-76
2022/11/24 09:42:38;;;;;;;162.93;45.53;;;4.60;99.90;;;;;;5051728;28;20700;-76
2022/11/24 09:45:19;;;;;;;155.57;46.93;;;4.70;99.90;;;;;;5048885;28;20590;-76
2022/11/24 09:47:59;;;;;;;153.40;46.17;;;4.70;99.90;;;;;;5048359;28;20601;-76
2022/11/24 09:50:28;;;;;;;147.83;46.53;;;4.70;99.90;;;;;;5048710;28;20196;-78
2022/11/24 09:53:02;;;;;;;161.43;46.57;;;4.70;99.90;;;;;;5048183;28;20246;-79
2022/11/24 09:55:42;;;;;;;172.77;46.87;;;4.70;99.90;;;;;;5048779;28;20192;-77
2022/11/24 09:58:21;;;;;;;194.37;50.70;;;4.70;99.90;;;;;;5048484;28;20255;-77
2022/11/24 10:00:51;;;;;;;166.50;47.93;;;4.70;99.90;;;;;;5051435;28;20245;-78
2022/11/24 10:03:24;;;;;;;177.87;46.03;;;4.70;99.90;;;;;;5051363;28;20218;-74
2022/11/24 10:05:53;;;;;;;171.93;47.73;;;4.70;99.90;;;;;;5050107;28;20276;-77
2022/11/24 10:08:33;;;;;;;161.13;47.10;;;4.70;99.90;;;;;;5055227;28;20287;-76
2022/11/24 10:11:03;;;;;;;151.87;44.73;;;4.70;99.90;;;;;;5038618;28;20263;-76
2022/11/24 10:13:47;;;;;;;156.03;45.83;;;4.70;99.90;;;;;;5051785;28;20255;-78
2022/11/24 10:16:35;;;;;;;146.60;45.17;;;4.70;1.00;;;;;;5054306;28;20249;-79
2022/11/24 10:19:14;;;;;;;142.87;45.40;;;4.70;1.00;;;;;;5038342;28;20406;-76
2022/11/24 10:21:57;;;;;;;143.13;45.43;;;4.80;99.90;;;;;;5058214;28;20216;-78
2022/11/24 10:24:59;;;;;;;142.47;44.63;;;4.80;99.90;;;;;;5054906;28;20200;-76
2022/11/24 10:27:31;;;;;;;149.20;45.67;;;4.80;1.00;;;;;;5057763;28;20185;-77
2022/11/24 10:29:59;;;;;;;141.77;45.93;;;4.90;99.90;;;;;;5053771;27;20228;-79
2022/11/24 10:32:31;;;;;;;133.70;44.17;;;4.90;99.90;;;;;;5057972;28;20242;-77
2022/11/24 10:35:12;;;;;;;146.27;44.50;;;4.90;1.00;;;;;;5051810;28;20646;-76
2022/11/24 10:37:45;;;;;;;141.03;45.27;;;4.90;99.90;;;;;;5054696;28;20185;-78
2022/11/24 10:40:22;;;;;;;148.57;44.70;;;4.90;1.00;;;;;;5061444;28;20228;-77
2022/11/24 10:42:50;;;;;;;162.60;46.43;;;4.90;1.00;;;;;;5056517;28;20213;-77
2022/11/24 10:45:21;;;;;;;157.10;46.53;;;5.00;1.00;;;;;;5064221;28;20224;-78
2022/11/24 10:47:49;;;;;;;146.57;45.57;;;5.00;99.90;;;;;;5054238;28;20211;-77
2022/11/24 10:50:23;;;;;;;170.83;53.97;;;5.00;99.90;;;;;;5054681;28;20252;-77
2022/11/24 10:52:56;;;;;;;159.50;51.17;;;5.00;99.90;;;;;;5057907;28;20190;-77
2022/11/24 10:55:25;;;;;;;152.37;48.10;;;5.00;99.90;;;;;;5048333;28;20230;-81
2022/11/24 10:57:52;;;;;;;161.30;46.57;;;5.00;99.90;;;;;;5048988;28;20267;-77
2022/11/24 11:00:33;;;;;;;151.13;46.10;;;5.10;1.00;;;;;;5052800;28;20199;-77
2022/11/24 11:03:17;;;;;;;160.93;48.43;;;5.10;99.90;;;;;;5051163;28;20212;-77
2022/11/24 11:05:50;;;;;;;159.57;53.30;;;5.10;1.00;;;;;;5050965;28;20181;-77
2022/11/24 11:08:23;;;;;;;154.57;47.33;;;5.10;99.90;;;;;;5051081;28;20554;-77
2022/11/24 11:11:27;;;;;;;141.83;44.60;;;5.20;99.90;;;;;;5037479;28;20238;-77
2022/11/24 11:13:56;;;;;;;140.07;46.47;;;5.20;99.90;;;;;;4989322;28;20334;-76
2022/11/24 11:16:34;;;;;;;138.37;46.17;;;5.30;99.90;;;;;;4988718;28;20200;-78
2022/11/24 11:19:03;;;;;;;144.80;44.20;;;5.30;99.90;;;;;;5021998;28;20189;-77
2022/11/24 11:21:36;;;;;;;125.47;42.37;;;5.40;99.90;;;;;;5050600;28;20222;-77
2022/11/24 11:24:06;;;;;;;138.03;41.83;;;5.40;99.90;;;;;;5050649;28;20589;-79
2022/11/24 11:26:38;;;;;;;137.07;47.07;;;5.40;99.90;;;;;;5050702;28;20554;-77
2022/11/24 11:29:22;;;;;;;144.13;47.83;;;5.50;99.90;;;;;;5050739;28;20192;-78
2022/11/24 11:32:00;;;;;;;141.77;44.50;;;5.50;99.90;;;;;;5049096;28;20243;-77
2022/11/24 11:34:29;;;;;;;139.93;43.57;;;5.50;99.90;;;;;;5050724;28;20251;-79
2022/11/24 11:36:58;;;;;;;128.20;39.07;;;5.50;90.20;;;;;;5037256;28;20223;-77
2022/11/24 11:39:29;;;;;;;131.53;43.03;;;5.40;97.40;;;;;;5050297;28;20667;-78
2022/11/24 11:42:08;;;;;;;126.17;44.00;;;5.30;99.90;;;;;;5050172;28;20254;-77
2022/11/24 11:44:41;;;;;;;127.37;40.83;;;5.30;99.90;;;;;;5050870;28;20257;-77
2022/11/24 11:47:18;;;;;;;125.33;41.93;;;5.30;99.90;;;;;;5050758;28;20191;-77
2022/11/24 11:49:47;;;;;;;137.67;42.70;;;5.40;99.90;;;;;;5050232;28;20190;-77
2022/11/24 11:52:53;;;;;;;130.77;43.43;;;5.40;99.90;;;;;;5050128;28;20711;-78
2022/11/24 11:55:39;;;;;;;145.00;45.13;;;5.40;99.90;;;;;;5051892;28;20198;-77
2022/11/24 11:58:22;;;;;;;140.67;45.37;;;5.40;99.90;;;;;;5050667;28;20250;-77
2022/11/24 12:00:59;;;;;;;137.53;46.20;;;5.50;99.90;;;;;;5037548;28;20185;-77
2022/11/24 12:03:54;;;;;;;233.77;94.60;;;5.50;99.90;;;;;;5049746;28;20261;-78
2022/11/24 12:06:36;;;;;;;138.80;46.67;;;5.50;99.90;;;;;;5050008;28;20272;-78
2022/11/24 12:09:17;;;;;;;155.33;52.60;;;5.50;99.90;;;;;;5050157;28;20216;-78
2022/11/24 12:11:53;;;;;;;135.87;42.70;;;5.50;99.90;;;;;;5050459;28;20201;-78
2022/11/24 12:14:32;;;;;;;124.33;42.30;;;5.60;73.40;;;;;;5051752;28;20634;-76
2022/11/24 12:17:07;;;;;;;129.03;41.87;;;5.50;32.40;;;;;;5050057;28;20188;-78
2022/11/24 12:20:07;;;;;;;127.73;43.10;;;5.50;1.00;;;;;;5050191;28;20200;-77
2022/11/24 12:22:42;;;;;;;162.70;53.87;;;5.40;94.00;;;;;;5016701;28;20221;-77
2022/11/24 12:25:22;;;;;;;132.77;44.93;;;5.40;78.30;;;;;;5049889;28;20224;-77
2022/11/24 12:27:58;;;;;;;189.67;65.57;;;5.50;86.70;;;;;;5049657;28;20249;-79
2022/11/24 12:30:31;;;;;;;252.13;89.63;;;5.50;1.00;;;;;;5049933;28;20196;-77
2022/11/24 12:33:20;;;;;;;153.17;51.70;;;5.60;3.00;;;;;;5049777;28;20195;-78
2022/11/24 12:35:53;;;;;;;186.07;65.07;;;5.50;1.00;;;;;;5049520;28;20288;-76
2022/11/24 12:38:33;;;;;;;144.17;51.10;;;5.60;1.00;;;;;;5049778;28;20277;-76
2022/11/24 12:41:23;;;;;;;165.67;61.50;;;5.60;1.00;;;;;;5049422;28;20199;-79
2022/11/24 12:43:52;;;;;;;134.90;48.53;;;5.60;1.00;;;;;;5049448;28;20672;-77
2022/11/24 12:46:31;;;;;;;130.70;46.47;;;5.60;1.00;;;;;;5049746;28;20627;-77
2022/11/24 12:49:11;;;;;;;140.87;44.30;;;5.60;1.00;;;;;;5049572;28;20591;-77
2022/11/24 12:51:41;;;;;;;140.03;46.23;;;5.60;1.00;;;;;;5049724;28;20191;-77